Gentle Leader — C6WY9 — position and weather

sailwx.info

Track history (hours):
 
Tides and Currents Weather Stations Pressure Air Temp Water Temp Dewpoint Dewpoint Depression Visibility Wind Speed Wind Dir Waves Ship Positions

Gentle Leader

Last reported at 2016-Apr-16 03:33 UTC. Time now 2016-May-05 04:48 UTC.
Position N 31°16' E 032°19'.
Warning: this ship's position is 19 days out of date.

Length 200 m; draft 9.1 m.

Type: Cargo ship. MMSI: 311003300.

Date/timePositionNaut miles runAvg speedWind from/ knotsBaromVisibWave heightAir tempDewpointWater temp
2016-Apr-16 03:33N 31°16' E 032°19'6 1.9
2016-Apr-16 00:26N 31°22' E 032°20'0 0.0
2016-Apr-15 23:32N 31°22' E 032°20'0 0.0
2016-Apr-15 16:32N 31°22' E 032°20'4 3.9
2016-Apr-15 15:33N 31°25' E 032°20'1514.6
2016-Apr-15 14:31N 31°36' E 032°07'1515.6
2016-Apr-15 13:33N 31°46' E 031°54'1615.4
2016-Apr-15 12:30N 31°57' E 031°40'1415.1
2016-Apr-15 11:33N 32°06' E 031°27'3415.4
2016-Apr-15 09:22N 32°32' E 031°01'3115.6
2016-Apr-15 07:24N 32°54' E 030°36'1415.7
2016-Apr-15 06:31N 33°04' E 030°25'1515.7
2016-Apr-15 05:32N 33°16' E 030°13'3215.4
2016-Apr-15 03:29N 33°40' E 029°48'1415.5
2016-Apr-15 02:33N 33°51' E 029°36'1615.6
2016-Apr-15 01:31N 34°03' E 029°23'19215.9
2016-Apr-14 13:26N 36°27' E 026°49'1415.4
2016-Apr-14 12:30N 36°41' E 026°45'1615.6
2016-Apr-14 11:28N 36°56' E 026°38'1415.2
2016-Apr-14 10:33N 37°08' E 026°28'1615.7
2016-Apr-14 09:32N 37°16' E 026°11'1515.5
2016-Apr-14 08:33N 37°26' E 025°56'1514.7
2016-Apr-14 07:32N 37°38' E 025°46'12114.5
2016-Apr-13 23:09N 39°40' E 025°42'915.1
2016-Apr-13 22:33N 39°48' E 025°45'1515.0
2016-Apr-13 21:33N 40°00' E 025°57'103 2.1
2016-Apr-11 20:28N 38°28' E 024°57'3115.3
2016-Apr-11 18:28N 38°01' E 024°39'1415.2
2016-Apr-11 17:33N 37°48' E 024°34'38713.2
2016-Apr-10 12:14N 37°41' E 016°25'1116.0
2016-Apr-10 11:33N 37°44' E 016°12'1615.8
2016-Apr-10 10:33N 37°48' E 015°52'1414.4
2016-Apr-10 09:33N 37°55' E 015°36'1615.5
2016-Apr-10 08:33N 38°10' E 015°35'1413.9
2016-Apr-10 07:33N 38°23' E 015°41'16314.4
2016-Apr-09 20:14N 40°21' E 013°16'22415.0
2016-Apr-09 05:22N 42°55' E 009°39'1315.6
2016-Apr-09 04:33N 43°07' E 009°34'1515.2
2016-Apr-09 03:33N 43°20' E 009°23'1515.0
2016-Apr-09 02:33N 43°33' E 009°12'1514.9
2016-Apr-09 01:33N 43°46' E 009°01'1514.9
2016-Apr-09 00:33N 43°58' E 008°50'1515.0
2016-Apr-08 23:33N 44°11' E 008°39'1010.1
2016-Apr-08 22:33N 44°19' E 008°30'0 0.0
2016-Apr-08 21:33N 44°19' E 008°30'0 0.0
2016-Apr-08 20:33N 44°19' E 008°30'0 0.0
2016-Apr-08 19:33N 44°19' E 008°30'0 0.0
2016-Apr-08 18:33N 44°19' E 008°30'0 0.0
2016-Apr-08 17:30N 44°19' E 008°30'0 0.0
2016-Apr-08 16:33N 44°19' E 008°30'0 0.0
2016-Apr-08 15:33N 44°19' E 008°30'0 0.0
2016-Apr-08 14:34N 44°19' E 008°30'0 0.0
2016-Apr-08 13:30N 44°19' E 008°30'0 0.0
2016-Apr-08 12:33N 44°19' E 008°30'1 0.9
2016-Apr-08 11:33N 44°19' E 008°31'5 4.7
2016-Apr-08 10:33N 44°15' E 008°35'1 0.8
2016-Apr-08 09:33N 44°14' E 008°34'9 9.2
2016-Apr-08 08:33N 44°05' E 008°32'1010.5
2016-Apr-08 07:33N 43°56' E 008°26'1010.5
2016-Apr-08 06:33N 43°47' E 008°18'1515.3
2016-Apr-08 05:33N 43°37' E 008°02'3917.9
2016-Apr-08 03:22N 43°13' E 007°20'25218.1
2016-Apr-07 13:27N 41°18' E 002°17'5 0.5
2016-Apr-07 03:33N 41°15' E 002°11'0 0.2
2016-Apr-07 02:33N 41°15' E 002°11'9 9.0
2016-Apr-07 01:33N 41°07' E 002°05'1010.1
2016-Apr-07 00:33N 40°58' E 001°59'1010.3
2016-Apr-06 23:33N 40°49' E 001°53'9 8.8
2016-Apr-06 22:33N 40°41' E 001°48'9 8.8
2016-Apr-06 21:32N 40°33' E 001°43'9 9.1
2016-Apr-06 20:33N 40°25' E 001°37'1110.7
2016-Apr-06 19:33N 40°16' E 001°30'1111.1
2016-Apr-06 18:33N 40°06' E 001°24'1111.1
2016-Apr-06 17:33N 39°56' E 001°17'3610.5
2016-Apr-06 14:06N 39°24' E 000°56'92 9.6
2016-Apr-06 04:33N 38°05' W 000°04'  
Track history (hours):
 
Tides and Currents Weather Stations Pressure Air Temp Water Temp Dewpoint Dewpoint Depression Visibility Wind Speed Wind Dir Waves Ship Positions

Gentle Leader

Last reported at 2016-Apr-16 03:33 UTC. Time now 2016-May-05 04:48 UTC.
Position N 31°16' E 032°19'.
Warning: this ship's position is 19 days out of date.

Length 200 m; draft 9.1 m.

Type: Cargo ship. MMSI: 311003300.

Date/timePositionNaut miles runAvg speedWind from/ knotsBaromVisibWave heightAir tempDewpointWater temp
2016-Apr-16 03:33N 31°16' E 032°19'6 1.9
2016-Apr-16 00:26N 31°22' E 032°20'0 0.0
2016-Apr-15 23:32N 31°22' E 032°20'0 0.0
2016-Apr-15 16:32N 31°22' E 032°20'4 3.9
2016-Apr-15 15:33N 31°25' E 032°20'1514.6
2016-Apr-15 14:31N 31°36' E 032°07'1515.6
2016-Apr-15 13:33N 31°46' E 031°54'1615.4
2016-Apr-15 12:30N 31°57' E 031°40'1415.1
2016-Apr-15 11:33N 32°06' E 031°27'3415.4
2016-Apr-15 09:22N 32°32' E 031°01'3115.6
2016-Apr-15 07:24N 32°54' E 030°36'1415.7
2016-Apr-15 06:31N 33°04' E 030°25'1515.7
2016-Apr-15 05:32N 33°16' E 030°13'3215.4
2016-Apr-15 03:29N 33°40' E 029°48'1415.5
2016-Apr-15 02:33N 33°51' E 029°36'1615.6
2016-Apr-15 01:31N 34°03' E 029°23'19215.9
2016-Apr-14 13:26N 36°27' E 026°49'1415.4
2016-Apr-14 12:30N 36°41' E 026°45'1615.6
2016-Apr-14 11:28N 36°56' E 026°38'1415.2
2016-Apr-14 10:33N 37°08' E 026°28'1615.7
2016-Apr-14 09:32N 37°16' E 026°11'1515.5
2016-Apr-14 08:33N 37°26' E 025°56'1514.7
2016-Apr-14 07:32N 37°38' E 025°46'12114.5
2016-Apr-13 23:09N 39°40' E 025°42'915.1
2016-Apr-13 22:33N 39°48' E 025°45'1515.0
2016-Apr-13 21:33N 40°00' E 025°57'103 2.1
2016-Apr-11 20:28N 38°28' E 024°57'3115.3
2016-Apr-11 18:28N 38°01' E 024°39'1415.2
2016-Apr-11 17:33N 37°48' E 024°34'38713.2
2016-Apr-10 12:14N 37°41' E 016°25'1116.0
2016-Apr-10 11:33N 37°44' E 016°12'1615.8
2016-Apr-10 10:33N 37°48' E 015°52'1414.4
2016-Apr-10 09:33N 37°55' E 015°36'1615.5
2016-Apr-10 08:33N 38°10' E 015°35'1413.9
2016-Apr-10 07:33N 38°23' E 015°41'16314.4
2016-Apr-09 20:14N 40°21' E 013°16'22415.0
2016-Apr-09 05:22N 42°55' E 009°39'1315.6
2016-Apr-09 04:33N 43°07' E 009°34'1515.2
2016-Apr-09 03:33N 43°20' E 009°23'1515.0
2016-Apr-09 02:33N 43°33' E 009°12'1514.9
2016-Apr-09 01:33N 43°46' E 009°01'1514.9
2016-Apr-09 00:33N 43°58' E 008°50'1515.0
2016-Apr-08 23:33N 44°11' E 008°39'1010.1
2016-Apr-08 22:33N 44°19' E 008°30'0 0.0
2016-Apr-08 21:33N 44°19' E 008°30'0 0.0
2016-Apr-08 20:33N 44°19' E 008°30'0 0.0
2016-Apr-08 19:33N 44°19' E 008°30'0 0.0
2016-Apr-08 18:33N 44°19' E 008°30'0 0.0
2016-Apr-08 17:30N 44°19' E 008°30'0 0.0
2016-Apr-08 16:33N 44°19' E 008°30'0 0.0
2016-Apr-08 15:33N 44°19' E 008°30'0 0.0
2016-Apr-08 14:34N 44°19' E 008°30'0 0.0
2016-Apr-08 13:30N 44°19' E 008°30'0 0.0
2016-Apr-08 12:33N 44°19' E 008°30'1 0.9
2016-Apr-08 11:33N 44°19' E 008°31'5 4.7
2016-Apr-08 10:33N 44°15' E 008°35'1 0.8
2016-Apr-08 09:33N 44°14' E 008°34'9 9.2
2016-Apr-08 08:33N 44°05' E 008°32'1010.5
2016-Apr-08 07:33N 43°56' E 008°26'1010.5
2016-Apr-08 06:33N 43°47' E 008°18'1515.3
2016-Apr-08 05:33N 43°37' E 008°02'3917.9
2016-Apr-08 03:22N 43°13' E 007°20'25218.1
2016-Apr-07 13:27N 41°18' E 002°17'5 0.5
2016-Apr-07 03:33N 41°15' E 002°11'0 0.2
2016-Apr-07 02:33N 41°15' E 002°11'9 9.0
2016-Apr-07 01:33N 41°07' E 002°05'1010.1
2016-Apr-07 00:33N 40°58' E 001°59'1010.3
2016-Apr-06 23:33N 40°49' E 001°53'9 8.8
2016-Apr-06 22:33N 40°41' E 001°48'9 8.8
2016-Apr-06 21:32N 40°33' E 001°43'9 9.1
2016-Apr-06 20:33N 40°25' E 001°37'1110.7
2016-Apr-06 19:33N 40°16' E 001°30'1111.1
2016-Apr-06 18:33N 40°06' E 001°24'1111.1
2016-Apr-06 17:33N 39°56' E 001°17'3610.5
2016-Apr-06 14:06N 39°24' E 000°56'92 9.6
2016-Apr-06 04:33N 38°05' W 000°04'  

Dump ship's entire track history